createdAt,value
2023-07-23T00:00:49.037Z,15.75
2023-07-23T00:03:17.228Z,15.45
2023-07-23T00:05:45.959Z,14.57
2023-07-23T00:08:14.573Z,14.90
2023-07-23T00:10:41.886Z,13.52
2023-07-23T00:13:09.161Z,14.45
2023-07-23T00:15:36.619Z,13.85
2023-07-23T00:18:04.639Z,14.50
2023-07-23T00:20:32.074Z,11.77
2023-07-23T00:22:59.349Z,13.77
2023-07-23T00:25:26.649Z,13.77
2023-07-23T00:27:54.003Z,13.55
2023-07-23T00:30:21.342Z,15.43
2023-07-23T00:32:49.107Z,15.18
2023-07-23T00:35:16.566Z,14.02
2023-07-23T00:37:43.915Z,16.17
2023-07-23T00:40:11.784Z,14.60
2023-07-23T00:42:39.104Z,18.23
2023-07-23T00:45:06.634Z,18.30
2023-07-23T00:47:34.272Z,17.30
2023-07-23T00:50:01.814Z,16.75
2023-07-23T00:52:29.145Z,15.68
2023-07-23T00:54:56.732Z,14.88
2023-07-23T00:57:24.074Z,18.17
2023-07-23T00:59:51.391Z,16.10
2023-07-23T01:02:18.728Z,18.65
2023-07-23T01:04:46.091Z,16.77
2023-07-23T01:07:13.773Z,18.23
2023-07-23T01:09:41.327Z,16.27
2023-07-23T01:12:09.276Z,15.35
2023-07-23T01:14:37.649Z,16.42
2023-07-23T01:17:05.458Z,17.13
2023-07-23T01:19:32.754Z,17.98
2023-07-23T01:22:06.647Z,17.05
2023-07-23T01:24:36.874Z,15.82
2023-07-23T01:27:04.761Z,17.63
2023-07-23T01:29:32.080Z,16.23
2023-07-23T01:31:59.433Z,17.45
2023-07-23T01:34:27.158Z,14.48
2023-07-23T01:36:55.037Z,18.05
2023-07-23T01:39:22.320Z,16.83
2023-07-23T01:41:49.728Z,18.90
2023-07-23T01:44:17.059Z,18.27
2023-07-23T01:46:44.433Z,20.90
2023-07-23T01:49:11.789Z,23.40
2023-07-23T01:51:39.059Z,16.73
2023-07-23T01:54:06.333Z,16.10
2023-07-23T01:56:33.720Z,18.05
2023-07-23T01:59:01.057Z,17.98
2023-07-23T02:01:28.550Z,18.00
2023-07-23T02:03:56.107Z,17.98
2023-07-23T02:06:23.468Z,18.15
2023-07-23T02:08:50.838Z,17.02
2023-07-23T02:11:18.175Z,19.30
2023-07-23T02:13:45.688Z,18.33
2023-07-23T02:16:19.278Z,19.17
2023-07-23T02:18:46.775Z,18.38
2023-07-23T02:21:14.107Z,20.13
2023-07-23T02:23:41.816Z,25.42
2023-07-23T02:26:09.225Z,20.60
2023-07-23T02:28:36.652Z,19.70
2023-07-23T02:31:04.041Z,20.75
2023-07-23T02:33:31.360Z,20.42
2023-07-23T02:35:58.697Z,22.20
2023-07-23T02:38:26.018Z,23.25
2023-07-23T02:41:00.254Z,21.25
2023-07-23T02:43:27.653Z,19.83
2023-07-23T02:45:55.375Z,21.13
2023-07-23T02:48:22.736Z,24.70
2023-07-23T02:50:50.023Z,20.77
2023-07-23T02:53:17.381Z,20.90
2023-07-23T02:55:45.704Z,19.33
2023-07-23T02:58:12.946Z,21.67
2023-07-23T03:00:41.424Z,21.98
2023-07-23T03:03:09.367Z,22.20
2023-07-23T03:05:37.552Z,22.17
2023-07-23T03:08:05.437Z,20.85
2023-07-23T03:10:32.787Z,24.13
2023-07-23T03:13:00.140Z,20.75
2023-07-23T03:15:28.140Z,23.63
2023-07-23T03:17:55.569Z,21.80
2023-07-23T03:20:22.925Z,21.48
2023-07-23T03:22:50.191Z,20.10
2023-07-23T03:25:18.044Z,23.15
2023-07-23T03:27:45.439Z,23.90
2023-07-23T03:30:13.373Z,21.33
2023-07-23T03:32:41.780Z,25.25
2023-07-23T03:35:09.253Z,24.27
2023-07-23T03:37:36.580Z,24.27
2023-07-23T03:40:04.154Z,23.10
2023-07-23T03:42:31.470Z,25.00
2023-07-23T03:44:58.825Z,19.80
2023-07-23T03:47:26.214Z,21.40
2023-07-23T03:49:53.632Z,19.55
2023-07-23T03:52:21.373Z,19.27
2023-07-23T03:54:48.684Z,22.30
2023-07-23T03:57:15.974Z,20.58
2023-07-23T03:59:45.467Z,21.38
2023-07-23T04:02:13.118Z,21.40
2023-07-23T04:04:41.886Z,19.53
2023-07-23T04:07:09.404Z,18.27
2023-07-23T04:09:37.016Z,25.27
2023-07-23T04:12:04.423Z,20.35
2023-07-23T04:14:31.790Z,21.25
2023-07-23T04:16:59.070Z,19.50
2023-07-23T04:19:26.432Z,18.77
2023-07-23T04:21:57.443Z,17.98
2023-07-23T04:24:24.912Z,21.58
2023-07-23T04:26:52.230Z,20.80
2023-07-23T04:29:19.696Z,21.48
2023-07-23T04:31:46.977Z,24.63
2023-07-23T04:34:14.308Z,16.20
2023-07-23T04:36:41.632Z,22.00
2023-07-23T04:39:11.009Z,21.65
2023-07-23T04:41:38.450Z,18.90
2023-07-23T04:44:05.789Z,20.23
2023-07-23T04:46:33.097Z,19.67
2023-07-23T04:49:00.336Z,19.65
2023-07-23T04:51:27.864Z,22.90
2023-07-23T04:53:55.289Z,20.55
2023-07-23T04:56:22.592Z,21.65
2023-07-23T04:58:49.860Z,22.10
2023-07-23T05:01:17.197Z,19.50
2023-07-23T05:03:44.689Z,20.95
2023-07-23T05:06:11.997Z,19.23
2023-07-23T05:08:39.316Z,19.00
2023-07-23T05:11:07.049Z,21.48
2023-07-23T05:13:36.350Z,20.98
2023-07-23T05:16:04.617Z,21.60
2023-07-23T05:18:32.347Z,19.08
2023-07-23T05:20:59.656Z,21.35
2023-07-23T05:23:26.965Z,21.67
2023-07-23T05:25:56.133Z,20.60
2023-07-23T05:28:23.430Z,21.42
2023-07-23T05:30:50.787Z,19.50
2023-07-23T05:33:18.067Z,20.95
2023-07-23T05:35:45.885Z,20.85
2023-07-23T05:38:13.228Z,16.27
2023-07-23T05:40:41.100Z,19.70
2023-07-23T05:43:09.988Z,22.95
2023-07-23T05:45:37.802Z,18.30
2023-07-23T05:48:05.176Z,19.13
2023-07-23T05:50:32.526Z,16.60
2023-07-23T05:53:00.796Z,20.58
2023-07-23T05:55:28.167Z,19.03
2023-07-23T05:57:55.529Z,23.98
2023-07-23T06:00:22.850Z,18.67
2023-07-23T06:02:50.352Z,18.65
2023-07-23T06:05:17.808Z,19.60
2023-07-23T06:07:45.081Z,17.73
2023-07-23T06:10:12.788Z,24.25
2023-07-23T06:12:40.084Z,18.50
2023-07-23T06:15:07.696Z,20.63
2023-07-23T06:17:35.066Z,18.60
2023-07-23T06:20:02.468Z,16.35
2023-07-23T06:22:29.758Z,15.07
2023-07-23T06:24:57.043Z,18.90
2023-07-23T06:27:24.281Z,21.40
2023-07-23T06:29:51.567Z,20.00
2023-07-23T06:32:18.798Z,20.10
2023-07-23T06:34:46.075Z,18.02
2023-07-23T06:37:13.339Z,14.68
2023-07-23T06:39:40.606Z,16.25
2023-07-23T06:42:07.986Z,19.60
2023-07-23T06:44:35.347Z,15.05
2023-07-23T06:47:02.608Z,17.60
2023-07-23T06:49:30.187Z,16.95
2023-07-23T06:51:57.823Z,19.00
2023-07-23T06:54:25.294Z,18.40
2023-07-23T06:56:55.820Z,20.73
2023-07-23T06:59:23.143Z,17.63
2023-07-23T07:01:51.553Z,17.55
2023-07-23T07:04:19.011Z,19.25
2023-07-23T07:06:46.333Z,20.17
2023-07-23T07:09:13.619Z,17.40
2023-07-23T07:11:40.896Z,18.40
2023-07-23T07:14:08.213Z,16.95
2023-07-23T07:16:35.517Z,17.83
2023-07-23T07:19:02.917Z,16.90
2023-07-23T07:21:30.472Z,17.55
2023-07-23T07:23:58.047Z,20.40
2023-07-23T07:26:25.424Z,22.13
2023-07-23T07:28:52.688Z,19.55
2023-07-23T07:31:20.085Z,19.58
2023-07-23T07:33:47.441Z,16.63
2023-07-23T07:36:15.016Z,16.75
2023-07-23T07:38:42.559Z,22.50
2023-07-23T07:41:10.014Z,16.08
2023-07-23T07:43:37.367Z,15.32
2023-07-23T07:46:07.329Z,26.40
2023-07-23T07:48:36.247Z,16.95
2023-07-23T07:51:09.848Z,16.48
2023-07-23T07:53:37.897Z,16.63
2023-07-23T07:56:05.457Z,12.65
2023-07-23T07:58:33.088Z,17.98
2023-07-23T08:01:00.919Z,13.82
2023-07-23T08:03:29.690Z,15.18
2023-07-23T08:05:58.669Z,16.15
2023-07-23T08:08:30.716Z,17.85
2023-07-23T08:10:59.171Z,15.80
2023-07-23T08:13:26.608Z,15.77
2023-07-23T08:15:55.720Z,15.05
2023-07-23T08:18:23.828Z,16.30
2023-07-23T08:20:51.236Z,12.13
2023-07-23T08:23:18.662Z,15.77
2023-07-23T08:25:55.185Z,13.18
2023-07-23T08:28:23.638Z,15.15
2023-07-23T08:30:51.793Z,14.40
2023-07-23T08:33:20.294Z,13.37
2023-07-23T08:35:48.151Z,14.55
2023-07-23T08:38:16.958Z,14.52
2023-07-23T08:40:45.470Z,17.73
2023-07-23T08:43:12.761Z,15.48
2023-07-23T08:45:56.959Z,15.00
2023-07-23T08:48:24.356Z,15.15
2023-07-23T08:50:52.227Z,22.52
2023-07-23T08:53:19.992Z,14.52
2023-07-23T08:55:48.243Z,16.75
2023-07-23T08:58:19.503Z,13.57
2023-07-23T09:00:47.888Z,13.98
2023-07-23T09:03:21.936Z,15.45
2023-07-23T09:05:49.253Z,13.20
2023-07-23T09:08:16.533Z,13.90
2023-07-23T09:10:43.846Z,16.05
2023-07-23T09:13:15.600Z,15.52
2023-07-23T09:15:43.868Z,14.15
2023-07-23T09:18:11.131Z,16.20
2023-07-23T09:20:39.693Z,14.73
2023-07-23T09:23:08.325Z,13.10
2023-07-23T09:25:35.908Z,16.85
2023-07-23T09:28:03.475Z,15.18
2023-07-23T09:30:30.766Z,14.45
2023-07-23T09:32:59.124Z,13.95
2023-07-23T09:35:26.745Z,13.93
2023-07-23T09:37:57.438Z,14.60
2023-07-23T09:40:33.911Z,17.45
2023-07-23T09:43:01.353Z,17.75
2023-07-23T09:45:31.292Z,13.63
2023-07-23T09:48:14.149Z,14.60
2023-07-23T09:50:43.195Z,12.63
2023-07-23T09:53:10.718Z,14.10
2023-07-23T09:55:41.798Z,11.93
2023-07-23T09:58:10.992Z,13.05
2023-07-23T10:00:38.565Z,11.65
2023-07-23T10:03:08.383Z,12.38
2023-07-23T10:05:37.363Z,12.73
2023-07-23T10:08:05.323Z,11.02
2023-07-23T10:10:32.838Z,10.48
2023-07-23T10:13:00.526Z,12.05
2023-07-23T10:15:29.023Z,10.88
2023-07-23T10:18:01.520Z,13.30
2023-07-23T10:20:30.331Z,12.40
2023-07-23T10:22:58.001Z,12.68
2023-07-23T10:25:35.232Z,13.90
2023-07-23T10:28:06.975Z,16.05
2023-07-23T10:30:40.777Z,12.70
2023-07-23T10:33:11.315Z,16.73
2023-07-23T10:35:57.050Z,16.13
2023-07-23T10:38:25.402Z,15.32
2023-07-23T10:40:52.741Z,15.20
2023-07-23T10:43:20.072Z,17.02
2023-07-23T10:46:06.926Z,16.65
2023-07-23T10:48:40.502Z,17.42
2023-07-23T10:51:10.019Z,20.35
2023-07-23T10:54:03.994Z,18.70
2023-07-23T10:56:35.469Z,17.98
2023-07-23T10:59:10.231Z,18.25
2023-07-23T11:01:39.285Z,20.05
2023-07-23T11:06:34.404Z,16.63
2023-07-23T11:09:06.146Z,16.75
2023-07-23T11:11:36.586Z,16.33
2023-07-23T11:14:18.796Z,18.45
2023-07-23T11:16:46.965Z,20.65
2023-07-23T11:19:14.721Z,20.97
2023-07-23T11:21:49.093Z,17.95
2023-07-23T11:24:16.503Z,18.90
2023-07-23T11:26:43.989Z,17.85
2023-07-23T11:29:11.550Z,18.05
2023-07-23T11:31:39.458Z,17.45
2023-07-23T11:34:07.028Z,16.80
2023-07-23T11:36:34.814Z,14.95
2023-07-23T11:39:02.887Z,15.50
2023-07-23T11:41:38.504Z,14.50
2023-07-23T11:44:06.547Z,14.15
2023-07-23T11:46:38.325Z,13.38
2023-07-23T11:49:10.963Z,11.75
2023-07-23T11:51:38.639Z,12.70
2023-07-23T11:54:09.037Z,15.77
2023-07-23T11:56:39.647Z,13.48
2023-07-23T11:59:07.800Z,12.27
2023-07-23T12:01:37.420Z,10.55
2023-07-23T12:04:05.657Z,11.65
2023-07-23T12:06:33.905Z,10.07
2023-07-23T12:09:01.662Z,10.45
2023-07-23T12:11:33.966Z,9.93
2023-07-23T12:14:04.314Z,11.30
2023-07-23T12:16:35.982Z,12.30
2023-07-23T12:19:04.768Z,12.45
2023-07-23T12:21:33.603Z,10.73
2023-07-23T12:24:12.383Z,13.55
2023-07-23T12:29:07.002Z,11.63
2023-07-23T12:31:37.406Z,13.38
2023-07-23T12:34:04.751Z,10.02
2023-07-23T12:36:32.076Z,9.13
2023-07-23T12:38:59.317Z,8.57
2023-07-23T12:41:26.610Z,7.07
2023-07-23T12:43:53.925Z,11.07
2023-07-23T12:46:21.359Z,8.65
2023-07-23T12:48:48.718Z,7.70
2023-07-23T12:51:15.992Z,10.60
2023-07-23T12:53:43.344Z,8.95
2023-07-23T12:56:10.744Z,7.55
2023-07-23T12:58:38.018Z,5.57
2023-07-23T13:01:05.437Z,8.70
2023-07-23T13:03:34.626Z,7.40
2023-07-23T13:06:02.145Z,6.25
2023-07-23T13:08:29.446Z,6.32
2023-07-23T13:10:56.751Z,8.60
2023-07-23T13:13:24.151Z,7.28
2023-07-23T13:15:51.472Z,6.03
2023-07-23T13:18:19.324Z,5.25
2023-07-23T13:20:46.723Z,6.53
2023-07-23T13:23:14.235Z,7.70
2023-07-23T13:25:41.614Z,7.00
2023-07-23T13:28:08.925Z,7.78
2023-07-23T13:30:36.244Z,3.88
2023-07-23T13:33:03.619Z,5.82
2023-07-23T13:35:31.010Z,9.05
2023-07-23T13:37:58.298Z,5.20
2023-07-23T13:40:25.564Z,6.57
2023-07-23T13:42:52.853Z,6.25
2023-07-23T13:45:20.185Z,6.00
2023-07-23T13:47:47.516Z,7.53
2023-07-23T13:50:14.867Z,7.82
2023-07-23T13:52:42.202Z,5.45
2023-07-23T13:55:10.315Z,6.57
2023-07-23T13:57:37.594Z,8.60
2023-07-23T14:00:05.253Z,5.38
2023-07-23T14:02:47.314Z,8.98
2023-07-23T14:05:15.060Z,6.00
2023-07-23T14:07:43.813Z,8.63
2023-07-23T14:10:11.276Z,6.13
2023-07-23T14:12:38.580Z,6.22
2023-07-23T14:15:06.101Z,4.80
2023-07-23T14:17:33.483Z,5.72
2023-07-23T14:20:00.852Z,7.50
2023-07-23T14:22:28.179Z,8.25
2023-07-23T14:24:55.525Z,4.90
2023-07-23T14:27:22.992Z,9.45
2023-07-23T14:29:50.372Z,5.30
2023-07-23T14:32:17.746Z,4.45
2023-07-23T14:34:45.116Z,5.47
2023-07-23T14:37:12.631Z,4.90
2023-07-23T14:39:41.411Z,4.72
2023-07-23T14:44:35.906Z,5.55
2023-07-23T14:47:03.773Z,6.25
2023-07-23T14:49:31.952Z,4.90
2023-07-23T14:51:59.314Z,8.52
2023-07-23T14:54:26.664Z,7.32
2023-07-23T14:56:54.408Z,7.10
2023-07-23T14:59:21.798Z,6.93
2023-07-23T15:01:49.186Z,4.18
2023-07-23T15:04:16.501Z,5.47
2023-07-23T15:06:43.962Z,5.43
2023-07-23T15:09:13.274Z,5.65
2023-07-23T15:11:41.509Z,5.47
2023-07-23T15:14:08.892Z,6.15
2023-07-23T15:16:36.438Z,5.10
2023-07-23T15:19:03.898Z,5.72
2023-07-23T15:21:33.860Z,5.50
2023-07-23T15:24:03.568Z,7.22
2023-07-23T15:26:33.355Z,4.53
2023-07-23T15:29:02.885Z,10.85
2023-07-23T15:31:34.170Z,7.30
2023-07-23T15:34:01.944Z,7.18
2023-07-23T15:36:29.319Z,4.93
2023-07-23T15:38:58.095Z,3.53
2023-07-23T15:41:25.456Z,4.20
2023-07-23T15:43:52.862Z,6.15
2023-07-23T15:46:20.310Z,3.65
2023-07-23T15:48:47.704Z,5.82
2023-07-23T15:51:15.140Z,5.90
2023-07-23T15:53:42.499Z,7.70
2023-07-23T15:56:09.810Z,5.45
2023-07-23T15:58:37.205Z,4.43
2023-07-23T16:01:04.724Z,5.88
2023-07-23T16:03:32.620Z,10.52
2023-07-23T16:06:00.614Z,7.37
2023-07-23T16:08:30.772Z,6.97
2023-07-23T16:10:59.009Z,7.22
2023-07-23T16:13:26.719Z,6.82
2023-07-23T16:15:54.044Z,7.00
2023-07-23T16:18:21.356Z,6.30
2023-07-23T16:20:48.735Z,14.40
2023-07-23T16:23:16.113Z,4.80
2023-07-23T16:25:43.530Z,5.65
2023-07-23T16:28:15.478Z,4.60
2023-07-23T16:30:43.002Z,4.93
2023-07-23T16:33:11.057Z,6.68
2023-07-23T16:35:38.511Z,4.90
2023-07-23T16:38:13.164Z,6.47
2023-07-23T16:40:42.911Z,5.93
2023-07-23T16:43:11.151Z,5.18
2023-07-23T16:45:38.499Z,5.53
2023-07-23T16:48:05.920Z,6.15
2023-07-23T16:50:33.183Z,5.40
2023-07-23T16:53:00.468Z,7.55
2023-07-23T16:55:27.763Z,8.55
2023-07-23T16:57:56.422Z,6.53
2023-07-23T17:00:25.581Z,6.53
2023-07-23T17:02:53.682Z,6.13
2023-07-23T17:05:21.181Z,7.07
2023-07-23T17:07:48.858Z,6.57
2023-07-23T17:10:16.214Z,5.68
2023-07-23T17:12:43.499Z,7.00
2023-07-23T17:15:11.010Z,7.75
2023-07-23T17:17:38.350Z,8.30
2023-07-23T17:20:06.047Z,6.80
2023-07-23T17:22:33.340Z,11.85
2023-07-23T17:25:00.721Z,6.55
2023-07-23T17:27:28.090Z,9.35
2023-07-23T17:29:55.412Z,10.02
2023-07-23T17:32:22.860Z,8.45
2023-07-23T17:34:50.173Z,6.93
2023-07-23T17:37:17.488Z,9.63
2023-07-23T17:39:44.794Z,9.52
2023-07-23T17:42:12.518Z,8.40
2023-07-23T17:44:39.794Z,10.00
2023-07-23T17:47:07.645Z,13.55
2023-07-23T17:49:34.916Z,22.23
2023-07-23T17:52:02.193Z,15.68
2023-07-23T17:54:29.595Z,8.35
2023-07-23T17:56:56.862Z,11.48
2023-07-23T17:59:24.176Z,7.07
2023-07-23T18:01:51.767Z,9.85
2023-07-23T18:04:19.659Z,11.07
2023-07-23T18:06:48.144Z,11.68
2023-07-23T18:09:15.533Z,9.30
2023-07-23T18:11:42.796Z,12.40
2023-07-23T18:14:10.366Z,9.15
2023-07-23T18:16:37.794Z,10.93
2023-07-23T18:19:05.195Z,9.15
2023-07-23T18:21:32.488Z,10.23
2023-07-23T18:23:59.827Z,9.95
2023-07-23T18:26:27.130Z,9.82
2023-07-23T18:28:54.477Z,8.75
2023-07-23T18:31:33.185Z,9.90
2023-07-23T18:34:02.976Z,8.60
2023-07-23T18:36:30.464Z,9.88
2023-07-23T18:38:58.051Z,11.00
2023-07-23T18:41:32.142Z,9.57
2023-07-23T18:43:59.946Z,12.10
2023-07-23T18:46:28.021Z,11.02
2023-07-23T18:48:56.027Z,11.93
2023-07-23T18:51:23.776Z,10.50
2023-07-23T18:53:51.078Z,11.00
2023-07-23T18:56:18.419Z,10.65
2023-07-23T18:58:45.757Z,11.13
2023-07-23T19:01:13.358Z,10.45
2023-07-23T19:03:40.748Z,11.20
2023-07-23T19:06:08.953Z,10.13
2023-07-23T19:08:36.623Z,10.27
2023-07-23T19:11:03.925Z,11.10
2023-07-23T19:13:31.240Z,13.30
2023-07-23T19:15:59.313Z,10.05
2023-07-23T19:18:26.675Z,13.53
2023-07-23T19:20:54.206Z,8.88
2023-07-23T19:23:21.490Z,9.25
2023-07-23T19:25:48.808Z,13.68
2023-07-23T19:28:16.134Z,13.00
2023-07-23T19:30:44.421Z,14.40
2023-07-23T19:33:11.792Z,11.15
2023-07-23T19:35:40.347Z,12.30
2023-07-23T19:38:07.672Z,11.68
2023-07-23T19:40:35.217Z,13.77
2023-07-23T19:43:02.548Z,11.30
2023-07-23T19:45:29.900Z,14.32
2023-07-23T19:47:57.296Z,13.27
2023-07-23T19:50:24.701Z,13.52
2023-07-23T19:52:51.974Z,11.40
2023-07-23T19:55:19.341Z,10.68
2023-07-23T19:57:46.735Z,10.15
2023-07-23T20:00:14.568Z,12.73
2023-07-23T20:02:41.939Z,13.13
2023-07-23T20:05:09.695Z,9.93
2023-07-23T20:07:37.222Z,11.07
2023-07-23T20:10:04.800Z,9.98
2023-07-23T20:12:32.099Z,11.20
2023-07-23T20:14:59.506Z,10.55
2023-07-23T20:17:27.884Z,10.30
2023-07-23T20:19:55.270Z,9.90
2023-07-23T20:22:22.557Z,8.52
2023-07-23T20:24:49.996Z,9.57
2023-07-23T20:27:17.367Z,10.38
2023-07-23T20:29:44.855Z,8.63
2023-07-23T20:32:12.661Z,11.68
2023-07-23T20:34:40.181Z,10.75
2023-07-23T20:37:07.722Z,9.23
2023-07-23T20:39:36.099Z,11.23
2023-07-23T20:42:03.630Z,8.65
2023-07-23T20:44:31.053Z,11.60
2023-07-23T20:46:58.403Z,10.73
2023-07-23T20:49:25.690Z,9.93
2023-07-23T20:51:52.930Z,10.18
2023-07-23T20:54:21.167Z,11.02
2023-07-23T20:56:48.441Z,9.70
2023-07-23T20:59:15.771Z,10.15
2023-07-23T21:01:43.559Z,11.23
2023-07-23T21:04:11.373Z,12.50
2023-07-23T21:06:38.748Z,10.80
2023-07-23T21:09:06.166Z,11.10
2023-07-23T21:11:33.461Z,10.52
2023-07-23T21:14:00.792Z,8.68
2023-07-23T21:16:30.506Z,9.55
2023-07-23T21:18:58.077Z,10.38
2023-07-23T21:21:25.348Z,10.50
2023-07-23T21:23:52.706Z,10.00
2023-07-23T21:26:19.996Z,11.00
2023-07-23T21:28:47.295Z,14.38
2023-07-23T21:31:14.656Z,12.30
2023-07-23T21:33:42.064Z,11.80
2023-07-23T21:36:09.322Z,13.02
2023-07-23T21:38:36.631Z,11.00
2023-07-23T21:41:04.504Z,16.85
2023-07-23T21:43:32.092Z,11.20
2023-07-23T21:46:00.795Z,8.48
2023-07-23T21:48:28.243Z,10.43
2023-07-23T21:50:56.335Z,11.55
2023-07-23T21:53:23.720Z,11.07
2023-07-23T21:55:51.052Z,10.98
2023-07-23T21:58:19.821Z,9.90
2023-07-23T22:00:47.291Z,13.50
2023-07-23T22:03:14.937Z,11.98
2023-07-23T22:05:42.395Z,11.48
2023-07-23T22:08:09.940Z,11.98
2023-07-23T22:10:37.688Z,10.10
2023-07-23T22:13:05.753Z,11.73
2023-07-23T22:15:33.121Z,11.87
2023-07-23T22:18:00.416Z,11.05
2023-07-23T22:20:27.727Z,10.02
2023-07-23T22:22:55.037Z,12.68
2023-07-23T22:25:22.319Z,8.55
2023-07-23T22:27:49.683Z,11.48
2023-07-23T22:30:30.023Z,9.05
2023-07-23T22:32:59.091Z,10.68
2023-07-23T22:35:26.483Z,8.57
2023-07-23T22:37:54.375Z,10.25
2023-07-23T22:40:21.873Z,10.38
2023-07-23T22:43:01.040Z,12.57
2023-07-23T22:45:31.217Z,11.43
2023-07-23T22:47:58.680Z,10.18
2023-07-23T22:50:26.513Z,11.75
2023-07-23T22:52:53.907Z,12.30
2023-07-23T22:55:21.152Z,13.68
2023-07-23T22:57:49.255Z,10.30
2023-07-23T23:00:18.568Z,12.15
2023-07-23T23:02:46.866Z,11.23
2023-07-23T23:05:14.980Z,8.87
2023-07-23T23:07:42.390Z,9.32
2023-07-23T23:10:10.254Z,11.52
2023-07-23T23:12:37.542Z,9.68
2023-07-23T23:15:05.354Z,11.00
2023-07-23T23:17:32.733Z,14.15
2023-07-23T23:20:00.211Z,9.95
2023-07-23T23:22:27.912Z,11.18
2023-07-23T23:24:55.233Z,10.13
2023-07-23T23:27:30.987Z,13.13
2023-07-23T23:29:58.245Z,9.90
2023-07-23T23:32:25.784Z,9.27
2023-07-23T23:34:53.128Z,8.55
2023-07-23T23:37:20.388Z,9.02
2023-07-23T23:39:48.011Z,9.27
2023-07-23T23:42:15.266Z,8.45
2023-07-23T23:44:42.574Z,10.23
2023-07-23T23:47:09.921Z,9.82
2023-07-23T23:49:37.239Z,11.52
2023-07-23T23:52:04.594Z,11.75
2023-07-23T23:54:31.847Z,9.48
2023-07-23T23:57:02.408Z,9.32
2023-07-23T23:59:30.344Z,10.18
